Time;durP1;ratioP1;P1;durP2;ratioP2;P2;SDS_P1;SDS_P2;PMS_P1;PMS_P2;Temp;Humidity;BMP_temperature;BMP_pressure;BME280_temperature;BME280_humidity;BME280_pressure;Samples;Min_cycle;Max_cycle;Signal;HPM_P1;HPM_P2
2021/07/31 00:00:20;;;;;;;3.30;3.00;;;23.90;62.40;;;;;;5082784;28;20093;-35
2021/07/31 00:02:47;;;;;;;3.03;2.80;;;23.80;62.30;;;;;;5083175;28;20084;-35
2021/07/31 00:05:13;;;;;;;3.50;3.20;;;23.80;62.50;;;;;;5083119;28;20035;-36
2021/07/31 00:07:42;;;;;;;3.40;3.10;;;23.80;62.40;;;;;;5073268;28;20036;-35
2021/07/31 00:10:12;;;;;;;3.17;2.88;;;23.80;62.50;;;;;;5063044;28;20036;-35
2021/07/31 00:12:38;;;;;;;3.20;2.90;;;23.80;62.30;;;;;;5066737;28;20055;-36
2021/07/31 00:15:05;;;;;;;3.15;2.90;;;23.80;62.30;;;;;;5076688;28;20032;-36
2021/07/31 00:17:31;;;;;;;3.28;2.97;;;23.80;62.40;;;;;;5082918;28;20135;-36
2021/07/31 00:19:57;;;;;;;3.20;2.90;;;23.70;62.50;;;;;;5082713;28;20420;-35
2021/07/31 00:22:24;;;;;;;3.38;3.08;;;23.70;62.50;;;;;;5082587;28;20055;-36
2021/07/31 00:24:50;;;;;;;3.22;2.92;;;23.70;62.40;;;;;;5082859;28;20032;-36
2021/07/31 00:27:16;;;;;;;3.13;2.92;;;23.70;62.40;;;;;;5082713;28;20017;-35
2021/07/31 00:29:42;;;;;;;3.15;2.85;;;23.70;62.50;;;;;;5082872;28;20025;-35
2021/07/31 00:32:08;;;;;;;3.30;3.00;;;23.70;62.80;;;;;;5082635;28;20025;-35
2021/07/31 00:34:34;;;;;;;3.72;3.30;;;23.70;62.60;;;;;;5082788;28;20044;-35
2021/07/31 00:37:00;;;;;;;3.45;3.15;;;23.60;62.30;;;;;;5082856;28;20025;-35
2021/07/31 00:39:28;;;;;;;2.85;2.65;;;23.60;62.40;;;;;;5082825;28;20049;-35
2021/07/31 00:41:54;;;;;;;3.20;2.90;;;23.60;62.50;;;;;;5077833;28;20063;-36
2021/07/31 00:44:20;;;;;;;3.22;2.92;;;23.60;62.40;;;;;;5070187;28;20037;-35
2021/07/31 00:46:46;;;;;;;3.65;3.30;;;23.60;62.60;;;;;;5082864;28;20762;-35
2021/07/31 00:49:12;;;;;;;3.25;2.95;;;23.50;62.70;;;;;;5081117;28;20035;-36
2021/07/31 00:51:39;;;;;;;3.85;3.55;;;23.50;62.60;;;;;;5080910;28;20033;-36
2021/07/31 00:54:05;;;;;;;3.67;3.38;;;23.50;62.60;;;;;;5081313;28;20040;-35
2021/07/31 00:56:32;;;;;;;3.55;3.25;;;23.50;62.80;;;;;;5082374;28;20889;-35
2021/07/31 00:58:58;;;;;;;3.65;3.35;;;23.50;62.60;;;;;;5081097;28;20031;-35
2021/07/31 01:01:24;;;;;;;3.10;2.80;;;23.50;63.50;;;;;;5080991;28;20039;-36
2021/07/31 01:03:51;;;;;;;3.13;2.83;;;23.50;64.70;;;;;;5082490;28;20119;-36
2021/07/31 01:06:17;;;;;;;5.22;3.50;;;23.50;64.20;;;;;;5082594;28;20374;-36
2021/07/31 01:08:43;;;;;;;3.70;3.40;;;23.50;65.00;;;;;;5082544;28;20021;-35
2021/07/31 01:11:09;;;;;;;3.92;3.63;;;23.60;64.80;;;;;;5060485;28;20029;-36
2021/07/31 01:13:35;;;;;;;3.85;3.55;;;23.60;65.20;;;;;;5063823;28;20025;-35
2021/07/31 01:16:09;;;;;;;3.85;3.50;;;23.60;65.80;;;;;;5081016;28;20067;-36
2021/07/31 01:18:35;;;;;;;3.70;3.40;;;23.70;65.80;;;;;;5082430;28;20102;-35
2021/07/31 01:21:02;;;;;;;3.78;3.38;;;23.70;65.80;;;;;;5082196;28;20061;-36
2021/07/31 01:23:28;;;;;;;4.23;3.83;;;23.70;65.90;;;;;;5082096;28;20051;-35
2021/07/31 01:25:55;;;;;;;4.47;3.33;;;23.70;66.30;;;;;;5082413;28;20501;-35
2021/07/31 01:28:21;;;;;;;3.92;3.53;;;23.80;66.70;;;;;;5085240;28;20021;-36
2021/07/31 01:30:47;;;;;;;3.67;3.38;;;23.80;66.50;;;;;;5084803;28;20115;-35
2021/07/31 01:33:13;;;;;;;3.88;3.53;;;23.80;66.70;;;;;;5085611;28;20032;-35
2021/07/31 01:35:39;;;;;;;4.82;4.43;;;23.90;67.20;;;;;;5085701;28;20033;-36
2021/07/31 01:38:05;;;;;;;4.30;3.90;;;23.90;67.30;;;;;;5085791;28;20060;-36
2021/07/31 01:40:32;;;;;;;4.55;4.15;;;23.90;67.40;;;;;;5085723;28;20044;-36
2021/07/31 01:42:58;;;;;;;4.40;4.00;;;23.90;67.60;;;;;;5071891;28;20048;-36
2021/07/31 01:45:25;;;;;;;4.43;4.03;;;23.90;68.00;;;;;;5082134;28;20032;-35
2021/07/31 01:47:51;;;;;;;4.60;4.20;;;24.00;68.00;;;;;;5069888;28;20021;-36
2021/07/31 01:50:17;;;;;;;4.88;4.47;;;24.00;68.30;;;;;;5066161;28;20028;-36
2021/07/31 01:52:44;;;;;;;4.30;3.90;;;24.00;68.50;;;;;;5083985;28;20035;-36
2021/07/31 01:55:11;;;;;;;4.90;4.50;;;24.00;68.70;;;;;;5085560;28;20036;-35
2021/07/31 01:57:37;;;;;;;4.70;4.30;;;24.00;68.80;;;;;;5085195;28;20033;-36
2021/07/31 02:00:04;;;;;;;4.72;4.32;;;24.00;68.70;;;;;;5085277;28;20043;-36
2021/07/31 02:02:30;;;;;;;4.63;4.22;;;24.10;69.10;;;;;;5083835;28;20477;-36
2021/07/31 02:04:56;;;;;;;4.63;4.22;;;24.10;69.10;;;;;;5085330;28;20036;-36
2021/07/31 02:07:22;;;;;;;5.17;4.73;;;24.10;69.00;;;;;;5085309;28;20017;-36
2021/07/31 02:09:48;;;;;;;5.03;4.60;;;24.10;69.10;;;;;;5069689;28;20033;-36
2021/07/31 02:12:14;;;;;;;4.85;4.45;;;24.10;69.10;;;;;;5064709;28;20029;-36
2021/07/31 02:14:41;;;;;;;4.72;4.32;;;24.20;69.10;;;;;;5075050;28;20032;-36
2021/07/31 02:17:07;;;;;;;4.68;4.22;;;24.20;69.40;;;;;;5078800;28;20017;-36
2021/07/31 02:19:33;;;;;;;4.82;4.32;;;24.30;69.60;;;;;;5063678;28;20091;-36
2021/07/31 02:22:00;;;;;;;4.43;4.03;;;24.30;69.90;;;;;;5064929;28;20036;-36
2021/07/31 02:24:26;;;;;;;5.22;4.72;;;24.30;69.60;;;;;;5067213;28;20029;-36
2021/07/31 02:26:52;;;;;;;5.75;4.20;;;24.30;69.80;;;;;;5064543;28;20039;-35
2021/07/31 02:29:18;;;;;;;5.22;4.78;;;24.30;69.90;;;;;;5064892;28;20017;-36
2021/07/31 02:31:44;;;;;;;4.90;4.50;;;24.30;69.70;;;;;;5064936;28;20031;-36
2021/07/31 02:34:10;;;;;;;4.82;4.43;;;24.40;70.20;;;;;;5064156;28;20025;-35
2021/07/31 02:36:37;;;;;;;5.30;4.80;;;24.40;70.00;;;;;;5064712;28;20082;-36
2021/07/31 02:39:03;;;;;;;5.18;4.68;;;24.40;69.80;;;;;;5064594;28;20505;-36
2021/07/31 02:41:29;;;;;;;5.63;5.13;;;24.40;69.80;;;;;;5064518;28;20088;-36
2021/07/31 02:43:55;;;;;;;5.70;5.20;;;24.40;69.70;;;;;;5068650;28;20055;-36
2021/07/31 02:46:21;;;;;;;5.75;5.25;;;24.50;70.10;;;;;;5084691;28;20031;-36
2021/07/31 02:48:47;;;;;;;5.20;4.70;;;24.50;69.80;;;;;;5073584;28;20386;-36
2021/07/31 02:51:13;;;;;;;5.15;4.70;;;24.50;69.80;;;;;;5064598;28;20050;-36
2021/07/31 02:53:40;;;;;;;5.30;4.80;;;24.50;69.70;;;;;;5063901;28;20021;-36
2021/07/31 02:56:06;;;;;;;5.03;4.63;;;24.50;69.80;;;;;;5064494;28;20038;-36
2021/07/31 02:58:33;;;;;;;5.40;4.90;;;24.50;69.80;;;;;;5064274;28;20112;-36
2021/07/31 03:01:06;;;;;;;5.15;4.65;;;24.50;69.80;;;;;;5064146;28;20047;-36
2021/07/31 03:03:32;;;;;;;5.82;5.25;;;24.60;70.00;;;;;;5063802;28;20021;-36
2021/07/31 03:05:59;;;;;;;5.25;4.75;;;24.60;69.80;;;;;;5064084;28;20426;-36
2021/07/31 03:08:28;;;;;;;4.85;4.35;;;24.60;70.00;;;;;;5063892;28;20036;-36
2021/07/31 03:10:56;;;;;;;5.38;4.97;;;24.60;70.20;;;;;;5063982;28;20029;-36
2021/07/31 03:13:22;;;;;;;4.78;4.32;;;24.60;70.00;;;;;;5063617;28;20033;-36
2021/07/31 03:15:48;;;;;;;5.97;5.40;;;24.60;70.00;;;;;;5083625;28;20020;-36
2021/07/31 03:18:14;;;;;;;5.10;4.70;;;24.60;70.20;;;;;;5077759;28;20075;-36
2021/07/31 03:20:47;;;;;;;5.93;4.85;;;24.70;70.20;;;;;;5063766;28;20072;-36
2021/07/31 03:23:14;;;;;;;5.65;5.07;;;24.60;70.00;;;;;;5063531;28;20028;-36
2021/07/31 03:25:41;;;;;;;5.28;4.78;;;24.70;69.90;;;;;;5063730;28;20040;-36
2021/07/31 03:28:07;;;;;;;5.63;5.13;;;24.70;70.10;;;;;;5061574;28;20027;-36
2021/07/31 03:30:33;;;;;;;5.63;5.10;;;24.70;70.10;;;;;;5062151;28;20020;-36
2021/07/31 03:32:59;;;;;;;6.07;4.95;;;24.70;70.20;;;;;;5063850;28;20033;-36
2021/07/31 03:35:25;;;;;;;5.70;5.20;;;24.70;70.10;;;;;;5063323;28;20029;-36
2021/07/31 03:37:51;;;;;;;5.32;4.82;;;24.70;70.10;;;;;;5063442;28;20040;-36
2021/07/31 03:40:18;;;;;;;5.72;5.22;;;24.70;70.10;;;;;;5064427;28;20032;-36
2021/07/31 03:42:45;;;;;;;5.20;4.78;;;24.80;70.00;;;;;;5082115;28;20025;-36
2021/07/31 03:45:11;;;;;;;5.72;5.22;;;24.80;70.30;;;;;;5068280;28;20059;-36
2021/07/31 03:47:37;;;;;;;5.47;4.97;;;24.80;70.20;;;;;;5065006;28;20815;-36
2021/07/31 03:50:04;;;;;;;5.43;4.93;;;24.80;70.30;;;;;;5064315;28;20084;-35
2021/07/31 03:52:30;;;;;;;5.30;4.80;;;24.80;70.20;;;;;;5063413;28;20025;-36
2021/07/31 03:54:56;;;;;;;5.53;5.00;;;24.80;69.90;;;;;;5062931;28;20033;-36
2021/07/31 03:57:22;;;;;;;6.25;5.65;;;24.80;70.60;;;;;;5063025;28;20027;-36
2021/07/31 03:59:48;;;;;;;5.45;4.95;;;24.80;70.00;;;;;;5063015;28;20029;-36
2021/07/31 04:02:14;;;;;;;5.90;5.40;;;24.80;69.80;;;;;;5063259;28;20040;-36
2021/07/31 04:04:40;;;;;;;5.75;5.20;;;24.80;69.60;;;;;;5062828;28;20771;-35
2021/07/31 04:07:06;;;;;;;5.20;4.70;;;24.80;69.90;;;;;;5063196;28;20035;-36
2021/07/31 04:09:33;;;;;;;5.53;5.03;;;24.90;69.80;;;;;;5062876;28;20048;-36
2021/07/31 04:11:59;;;;;;;5.43;4.93;;;24.80;69.60;;;;;;5062983;28;20029;-36
2021/07/31 04:14:25;;;;;;;5.50;5.00;;;24.90;69.80;;;;;;5071061;28;20044;-36
2021/07/31 04:16:51;;;;;;;5.80;5.30;;;24.90;70.10;;;;;;5082924;28;20508;-36
2021/07/31 04:19:18;;;;;;;5.18;4.70;;;24.90;69.70;;;;;;5068019;28;20055;-36
2021/07/31 04:21:44;;;;;;;4.90;4.50;;;24.90;69.90;;;;;;5065575;28;20118;-36
2021/07/31 04:24:10;;;;;;;5.53;5.03;;;24.90;69.70;;;;;;5062753;28;20036;-35
2021/07/31 04:26:36;;;;;;;5.18;4.68;;;24.90;69.80;;;;;;5062824;28;20033;-36
2021/07/31 04:29:03;;;;;;;5.63;5.13;;;24.90;70.00;;;;;;5062658;28;20021;-36
2021/07/31 04:31:29;;;;;;;5.45;4.95;;;24.90;70.00;;;;;;5063024;28;20082;-36
2021/07/31 04:33:55;;;;;;;5.30;4.80;;;24.90;70.00;;;;;;5062898;28;20061;-36
2021/07/31 04:36:21;;;;;;;5.45;4.95;;;24.90;69.90;;;;;;5062380;28;20055;-36
2021/07/31 04:38:47;;;;;;;5.35;4.85;;;24.90;70.00;;;;;;5062838;28;20057;-36
2021/07/31 04:41:13;;;;;;;5.32;4.82;;;25.00;69.80;;;;;;5062782;28;20033;-36
2021/07/31 04:43:39;;;;;;;5.50;5.00;;;25.00;69.60;;;;;;5064499;28;20440;-36
2021/07/31 04:46:06;;;;;;;5.75;5.25;;;25.00;69.50;;;;;;5082238;28;20088;-36
2021/07/31 04:48:32;;;;;;;5.65;5.10;;;25.00;69.50;;;;;;5074425;28;20359;-37
2021/07/31 04:51:02;;;;;;;5.20;4.78;;;25.00;69.60;;;;;;5062644;28;20029;-37
2021/07/31 04:53:28;;;;;;;4.95;4.45;;;25.00;69.60;;;;;;5062689;28;20093;-36
2021/07/31 04:55:55;;;;;;;5.30;4.80;;;25.00;69.60;;;;;;5062325;28;20039;-36
2021/07/31 04:58:21;;;;;;;5.30;4.88;;;25.00;69.90;;;;;;5061903;28;20615;-36
2021/07/31 05:00:48;;;;;;;5.63;5.13;;;25.00;70.00;;;;;;5061254;28;20037;-36
2021/07/31 05:03:14;;;;;;;4.97;4.50;;;25.00;69.70;;;;;;5064981;28;20516;-36
2021/07/31 05:05:42;;;;;;;5.33;4.83;;;25.00;69.60;;;;;;5066360;28;20124;-36
2021/07/31 05:08:08;;;;;;;5.50;5.00;;;25.00;69.50;;;;;;5064906;28;20274;-36
2021/07/31 05:10:40;;;;;;;5.38;4.75;;;25.00;69.70;;;;;;5082121;28;20039;-36
2021/07/31 05:13:07;;;;;;;5.70;5.20;;;25.00;69.50;;;;;;5066418;28;20032;-35
2021/07/31 05:15:35;;;;;;;5.10;4.70;;;25.00;69.70;;;;;;5083030;28;20029;-35
2021/07/31 05:18:01;;;;;;;5.43;4.93;;;25.00;69.60;;;;;;5081954;28;20976;-36
2021/07/31 05:20:27;;;;;;;5.53;5.03;;;25.00;69.70;;;;;;5065779;28;20055;-36
2021/07/31 05:22:54;;;;;;;5.60;5.10;;;25.00;69.60;;;;;;5066279;28;20032;-36
2021/07/31 05:25:20;;;;;;;5.40;4.90;;;25.00;69.50;;;;;;5065905;28;20028;-36
2021/07/31 05:27:46;;;;;;;5.05;4.53;;;25.00;69.60;;;;;;5064513;28;20017;-36
2021/07/31 05:30:12;;;;;;;5.72;5.13;;;25.00;69.90;;;;;;5066043;28;20056;-36
2021/07/31 05:32:39;;;;;;;5.73;5.23;;;25.00;69.70;;;;;;5066088;28;20483;-36
2021/07/31 05:35:05;;;;;;;5.35;4.88;;;25.00;69.70;;;;;;5068093;28;20025;-36
2021/07/31 05:37:32;;;;;;;4.97;4.57;;;25.00;69.80;;;;;;5066078;28;20044;-36
2021/07/31 05:39:59;;;;;;;5.55;5.03;;;25.00;69.50;;;;;;5064648;28;20108;-36
2021/07/31 05:42:26;;;;;;;5.18;4.72;;;25.00;70.00;;;;;;5065554;28;20032;-36
2021/07/31 05:44:57;;;;;;;5.75;4.63;;;25.00;70.00;;;;;;5077719;28;20055;-36
2021/07/31 05:47:27;;;;;;;5.30;4.80;;;25.00;70.00;;;;;;5085641;28;20059;-35
2021/07/31 05:49:56;;;;;;;5.25;4.75;;;25.00;69.80;;;;;;5065973;28;20056;-36
2021/07/31 05:52:29;;;;;;;5.72;5.22;;;25.00;69.80;;;;;;5064215;28;20020;-36
2021/07/31 05:54:55;;;;;;;5.65;5.15;;;25.00;69.70;;;;;;5065514;28;20557;-36
2021/07/31 05:57:22;;;;;;;5.15;4.68;;;25.00;69.70;;;;;;5063728;28;20029;-36
2021/07/31 05:59:48;;;;;;;5.13;4.70;;;25.00;69.50;;;;;;5065422;28;20104;-36
2021/07/31 06:02:14;;;;;;;5.13;4.63;;;25.00;69.40;;;;;;5048173;28;20033;-37
2021/07/31 06:04:40;;;;;;;5.57;5.07;;;25.00;69.50;;;;;;5045369;28;20481;-36
2021/07/31 06:07:07;;;;;;;5.43;4.80;;;25.10;69.60;;;;;;5045207;28;20044;-36
2021/07/31 06:09:36;;;;;;;5.43;4.93;;;25.10;69.60;;;;;;5057417;28;20021;-36
2021/07/31 06:12:03;;;;;;;5.30;4.75;;;25.10;69.60;;;;;;5065118;28;20485;-36
2021/07/31 06:14:29;;;;;;;4.90;4.50;;;25.10;69.70;;;;;;5073661;28;20035;-36
2021/07/31 06:16:55;;;;;;;5.43;4.93;;;25.10;69.60;;;;;;5084865;28;20070;-36
2021/07/31 06:19:21;;;;;;;4.97;4.53;;;25.10;69.90;;;;;;5069849;28;20140;-36
2021/07/31 06:21:47;;;;;;;5.05;4.65;;;25.10;69.60;;;;;;5066705;28;20028;-40
2021/07/31 06:24:14;;;;;;;5.03;4.60;;;25.10;69.60;;;;;;5065596;28;20103;-36
2021/07/31 06:26:40;;;;;;;5.43;4.93;;;25.10;69.60;;;;;;5064691;28;20021;-36
2021/07/31 06:29:06;;;;;;;5.45;4.95;;;25.10;69.80;;;;;;5065029;28;20036;-36
2021/07/31 06:31:32;;;;;;;5.47;4.97;;;25.10;69.70;;;;;;5064921;28;20033;-36
2021/07/31 06:33:58;;;;;;;5.25;4.75;;;25.10;69.40;;;;;;5065041;28;20139;-36
2021/07/31 06:36:24;;;;;;;5.20;4.70;;;25.10;69.40;;;;;;5064602;28;20493;-36
2021/07/31 06:38:51;;;;;;;5.43;4.93;;;25.10;69.70;;;;;;5064617;28;20025;-36
2021/07/31 06:41:17;;;;;;;4.57;4.17;;;25.10;69.30;;;;;;5064678;28;20098;-36
2021/07/31 06:43:43;;;;;;;5.28;4.78;;;25.10;69.40;;;;;;5067046;28;20020;-36
2021/07/31 06:46:10;;;;;;;5.20;4.75;;;25.10;69.50;;;;;;5084485;28;20113;-36
2021/07/31 06:48:37;;;;;;;4.95;4.45;;;25.10;69.40;;;;;;5075608;28;20053;-36
2021/07/31 06:51:03;;;;;;;5.40;4.90;;;25.10;69.50;;;;;;5064335;28;20024;-36
2021/07/31 06:53:29;;;;;;;5.40;4.90;;;25.10;69.30;;;;;;5064631;28;20033;-36
2021/07/31 06:55:59;;;;;;;5.72;5.13;;;25.10;69.50;;;;;;5064282;28;20103;-36
2021/07/31 06:58:25;;;;;;;5.18;4.65;;;25.10;69.60;;;;;;5064339;28;20017;-36
2021/07/31 07:00:51;;;;;;;5.35;4.88;;;25.10;69.60;;;;;;5064427;28;20040;-36
2021/07/31 07:03:17;;;;;;;5.30;4.80;;;25.10;69.60;;;;;;5080585;28;20055;-36
2021/07/31 07:05:44;;;;;;;4.87;4.47;;;25.10;69.60;;;;;;5084436;28;20723;-36
2021/07/31 07:08:10;;;;;;;5.10;4.60;;;25.10;69.60;;;;;;5083929;28;20024;-38
2021/07/31 07:10:36;;;;;;;4.77;4.27;;;25.10;69.50;;;;;;5063848;28;20021;-36
2021/07/31 07:13:02;;;;;;;5.43;4.93;;;25.10;69.50;;;;;;5064079;28;20040;-37
2021/07/31 07:15:28;;;;;;;4.90;4.50;;;25.10;69.50;;;;;;5064027;28;20032;-36
2021/07/31 07:17:58;;;;;;;5.10;4.60;;;25.10;69.50;;;;;;5067026;28;20096;-36
2021/07/31 07:20:25;;;;;;;4.90;4.50;;;25.10;69.60;;;;;;5083726;28;20079;-35
2021/07/31 07:22:51;;;;;;;4.60;4.20;;;25.10;69.80;;;;;;5083902;28;20032;-36
2021/07/31 07:25:17;;;;;;;5.27;4.77;;;25.10;69.50;;;;;;5083151;28;20025;-36
2021/07/31 07:27:43;;;;;;;5.20;4.80;;;25.10;69.50;;;;;;5083427;28;20059;-36
2021/07/31 07:30:11;;;;;;;5.25;4.75;;;25.10;69.60;;;;;;5080799;28;20085;-36
2021/07/31 07:32:37;;;;;;;5.43;4.93;;;25.10;69.70;;;;;;5083822;28;20021;-36
2021/07/31 07:35:04;;;;;;;5.40;4.90;;;25.10;69.80;;;;;;5083457;28;20550;-36
2021/07/31 07:37:30;;;;;;;;;;;25.10;69.90;;;;;;5083830;28;20052;-36
2021/07/31 07:39:56;;;;;;;4.95;4.55;;;25.10;69.80;;;;;;5083608;28;19920;-36
2021/07/31 07:42:23;;;;;;;5.65;5.05;;;25.10;69.80;;;;;;5082148;28;20024;-36
2021/07/31 07:44:49;;;;;;;5.15;4.68;;;25.10;69.90;;;;;;5072029;28;20072;-38
2021/07/31 07:47:15;;;;;;;5.55;5.05;;;25.10;69.90;;;;;;5063267;28;20040;-36
2021/07/31 07:49:42;;;;;;;5.05;4.60;;;25.10;69.90;;;;;;5080330;28;20480;-36
2021/07/31 07:52:08;;;;;;;5.40;4.90;;;25.10;69.90;;;;;;5083593;28;20039;-36
2021/07/31 07:54:34;;;;;;;4.93;4.53;;;25.10;69.90;;;;;;5083526;28;20028;-36
2021/07/31 07:57:05;;;;;;;5.85;5.25;;;25.10;69.90;;;;;;5083285;28;20055;-37
2021/07/31 07:59:33;;;;;;;5.05;4.60;;;25.10;69.80;;;;;;5082066;28;20056;-36
2021/07/31 08:01:59;;;;;;;5.47;4.97;;;25.10;69.70;;;;;;5083361;28;20549;-36
2021/07/31 08:04:25;;;;;;;4.80;4.40;;;25.10;69.70;;;;;;5083334;28;20106;-36
2021/07/31 08:06:51;;;;;;;4.80;4.35;;;25.10;69.70;;;;;;5083165;28;20024;-36
2021/07/31 08:09:18;;;;;;;5.00;4.53;;;25.10;69.60;;;;;;5083424;28;20032;-37
2021/07/31 08:11:44;;;;;;;5.03;4.53;;;25.10;69.60;;;;;;5071337;28;20052;-36
2021/07/31 08:14:10;;;;;;;5.45;4.95;;;25.10;69.60;;;;;;5069370;28;20017;-36
2021/07/31 08:16:37;;;;;;;5.10;4.60;;;25.10;69.70;;;;;;5083006;28;20021;-36
2021/07/31 08:19:05;;;;;;;4.97;4.55;;;25.10;69.80;;;;;;5069887;28;20025;-36
2021/07/31 08:21:31;;;;;;;5.22;4.72;;;25.10;69.70;;;;;;5063046;28;20032;-36
2021/07/31 08:23:57;;;;;;;5.07;4.65;;;25.10;69.70;;;;;;5064652;28;20077;-36
2021/07/31 08:26:23;;;;;;;5.32;4.82;;;25.10;69.60;;;;;;5062977;28;20028;-36
2021/07/31 08:28:50;;;;;;;5.07;4.57;;;25.10;69.80;;;;;;5062813;28;20048;-36
2021/07/31 08:31:16;;;;;;;;;;;25.10;69.60;;;;;;5063609;28;20110;-36
2021/07/31 08:33:42;;;;;;;4.80;4.40;;;25.10;69.60;;;;;;5062716;28;19908;-36
2021/07/31 08:36:09;;;;;;;4.72;4.32;;;25.10;69.60;;;;;;5064516;28;20051;-36
2021/07/31 08:38:35;;;;;;;5.20;4.78;;;25.10;69.50;;;;;;5067027;28;20040;-36
2021/07/31 08:41:03;;;;;;;5.38;4.88;;;25.00;69.30;;;;;;5065679;28;20063;-36
2021/07/31 08:43:30;;;;;;;5.43;4.93;;;25.00;69.50;;;;;;5067561;28;20060;-36
2021/07/31 08:45:56;;;;;;;5.32;4.78;;;25.10;69.60;;;;;;5085577;28;20029;-36
2021/07/31 08:48:29;;;;;;;5.20;4.70;;;25.00;69.60;;;;;;5078493;28;20025;-36
2021/07/31 08:50:59;;;;;;;5.07;4.68;;;25.10;69.80;;;;;;5067066;28;20020;-36
2021/07/31 08:53:28;;;;;;;5.15;4.65;;;25.00;70.00;;;;;;5066758;28;20033;-36
2021/07/31 08:55:57;;;;;;;5.57;5.07;;;25.10;70.00;;;;;;5065610;28;20025;-36
2021/07/31 08:58:24;;;;;;;5.22;4.72;;;25.00;69.90;;;;;;5066342;28;20029;-36
2021/07/31 09:00:53;;;;;;;5.07;4.63;;;25.00;70.00;;;;;;5066790;28;20378;-36
2021/07/31 09:03:20;;;;;;;5.43;4.93;;;25.00;70.00;;;;;;5066635;28;20029;-36
2021/07/31 09:05:46;;;;;;;5.03;4.60;;;25.00;70.00;;;;;;5066799;28;20147;-36
2021/07/31 09:08:12;;;;;;;4.57;4.18;;;25.00;70.00;;;;;;5065240;28;20033;-36
2021/07/31 09:10:39;;;;;;;5.40;4.90;;;25.00;69.90;;;;;;5066572;28;20047;-36
2021/07/31 09:13:10;;;;;;;5.60;5.10;;;25.00;69.80;;;;;;5066930;28;20504;-36
2021/07/31 09:15:37;;;;;;;5.55;5.05;;;25.00;69.70;;;;;;5046071;28;20048;-36
2021/07/31 09:18:25;;;;;;;5.97;4.95;;;25.00;69.70;;;;;;5063356;28;20037;-36
2021/07/31 09:21:14;;;;;;;4.95;4.55;;;25.00;69.70;;;;;;5066033;28;20406;-36
2021/07/31 09:23:48;;;;;;;4.68;4.28;;;25.00;69.50;;;;;;5066409;28;20043;-36
2021/07/31 09:26:21;;;;;;;5.43;4.97;;;25.00;69.60;;;;;;5066265;28;20116;-36
2021/07/31 09:29:10;;;;;;;5.10;4.63;;;25.00;69.60;;;;;;5065915;28;20036;-36
2021/07/31 09:31:50;;;;;;;5.70;5.20;;;25.00;69.90;;;;;;5065092;28;20028;-41
2021/07/31 09:34:44;;;;;;;5.63;5.03;;;25.00;69.90;;;;;;5068477;28;20033;-36
2021/07/31 09:37:34;;;;;;;5.30;4.80;;;25.00;70.00;;;;;;5065994;28;20595;-36
2021/07/31 09:40:02;;;;;;;5.13;4.68;;;25.00;70.10;;;;;;5065723;28;20037;-36
2021/07/31 09:42:34;;;;;;;5.10;4.63;;;25.00;70.20;;;;;;5066022;28;20083;-36
2021/07/31 09:45:03;;;;;;;5.30;4.80;;;25.00;70.00;;;;;;5065591;28;20033;-36
2021/07/31 09:47:29;;;;;;;6.15;4.85;;;25.00;70.00;;;;;;5071384;28;20040;-36
2021/07/31 09:49:58;;;;;;;4.87;4.47;;;25.00;70.00;;;;;;5065564;28;20048;-36
2021/07/31 09:52:24;;;;;;;5.30;4.80;;;25.00;70.00;;;;;;5065743;28;20029;-36
2021/07/31 09:54:51;;;;;;;5.60;5.10;;;25.00;69.90;;;;;;5065672;28;20025;-36
2021/07/31 09:57:17;;;;;;;5.20;4.70;;;25.00;69.80;;;;;;5065757;28;20031;-36
2021/07/31 09:59:47;;;;;;;4.80;4.37;;;25.00;69.80;;;;;;5065182;28;20855;-36
2021/07/31 10:02:15;;;;;;;5.53;5.03;;;25.00;69.90;;;;;;5065656;28;20035;-36
2021/07/31 10:04:42;;;;;;;4.95;4.55;;;25.00;69.90;;;;;;5065464;28;20033;-36
2021/07/31 10:07:08;;;;;;;5.10;4.60;;;25.00;70.00;;;;;;5065521;28;20409;-36
2021/07/31 10:09:35;;;;;;;5.30;4.80;;;25.00;70.10;;;;;;5065122;28;20043;-36
2021/07/31 10:12:03;;;;;;;5.05;4.63;;;25.00;70.30;;;;;;5063942;28;20029;-36
2021/07/31 10:14:30;;;;;;;5.15;4.65;;;25.00;70.40;;;;;;5065214;28;20116;-36
2021/07/31 10:16:56;;;;;;;5.10;4.60;;;25.00;70.30;;;;;;5065535;28;20029;-36
2021/07/31 10:19:22;;;;;;;5.38;4.88;;;25.00;70.40;;;;;;5079886;28;20496;-36
2021/07/31 10:22:00;;;;;;;5.35;4.85;;;25.00;70.50;;;;;;5085384;28;20122;-36
2021/07/31 10:24:30;;;;;;;5.18;4.68;;;25.00;70.40;;;;;;5085065;28;20017;-36
2021/07/31 10:27:15;;;;;;;5.32;4.82;;;25.00;70.30;;;;;;5082087;28;20032;-36
2021/07/31 10:29:42;;;;;;;4.80;4.40;;;25.00;70.20;;;;;;5084625;28;20029;-36
2021/07/31 10:32:24;;;;;;;5.28;4.78;;;25.00;70.10;;;;;;5084879;28;20024;-35
2021/07/31 10:34:55;;;;;;;5.10;4.60;;;24.90;70.00;;;;;;5084881;28;20033;-36
2021/07/31 10:40:01;;;;;;;5.13;4.63;;;24.90;70.00;;;;;;5084580;28;20031;-35
2021/07/31 10:42:45;;;;;;;5.25;4.75;;;24.90;69.90;;;;;;5084787;28;20029;-37
2021/07/31 10:45:31;;;;;;;5.07;4.57;;;24.90;69.80;;;;;;5083342;28;20025;-36
2021/07/31 10:47:57;;;;;;;5.68;5.18;;;24.90;70.00;;;;;;5071130;28;20048;-36
2021/07/31 10:50:27;;;;;;;5.35;4.85;;;24.90;70.10;;;;;;5044420;28;20044;-36
2021/07/31 10:52:57;;;;;;;5.05;4.55;;;24.90;70.30;;;;;;5044752;28;20041;-36
2021/07/31 10:55:24;;;;;;;5.25;4.80;;;24.90;70.30;;;;;;5044526;28;20398;-35
2021/07/31 10:57:53;;;;;;;5.05;4.55;;;24.90;70.40;;;;;;5044544;28;20034;-36
2021/07/31 11:00:37;;;;;;;5.45;4.72;;;24.90;70.40;;;;;;5042971;28;20035;-36
2021/07/31 11:03:04;;;;;;;5.07;4.57;;;24.90;70.20;;;;;;5044479;28;20029;-36
2021/07/31 11:06:03;;;;;;;5.28;4.78;;;24.90;70.30;;;;;;5044284;28;20025;-36
2021/07/31 11:08:31;;;;;;;4.90;4.45;;;24.90;70.30;;;;;;5043864;28;20459;-36
2021/07/31 11:11:01;;;;;;;5.00;4.55;;;24.90;70.00;;;;;;5063068;28;20028;-36
2021/07/31 11:13:49;;;;;;;4.88;4.47;;;24.90;70.00;;;;;;5063763;28;20559;-36
2021/07/31 11:16:19;;;;;;;5.47;4.97;;;24.90;70.00;;;;;;5064060;28;20059;-36
2021/07/31 11:18:57;;;;;;;4.97;4.57;;;24.90;70.00;;;;;;5070326;28;20041;-36
2021/07/31 11:21:25;;;;;;;5.32;4.85;;;24.90;70.10;;;;;;5063468;28;20053;-36
2021/07/31 11:24:04;;;;;;;5.18;4.68;;;24.90;70.10;;;;;;5063835;28;20033;-36
2021/07/31 11:26:32;;;;;;;5.18;4.75;;;24.80;70.10;;;;;;5063817;28;20025;-36
2021/07/31 11:28:59;;;;;;;5.57;4.90;;;24.90;70.00;;;;;;5063813;28;20112;-36
2021/07/31 11:31:25;;;;;;;5.45;4.95;;;24.80;70.10;;;;;;5063545;28;20053;-36
2021/07/31 11:34:01;;;;;;;5.22;4.75;;;24.80;70.20;;;;;;5063916;28;20035;-39
2021/07/31 11:36:33;;;;;;;5.07;4.63;;;24.80;70.10;;;;;;5063522;28;20025;-35
2021/07/31 11:39:01;;;;;;;5.25;4.75;;;24.80;70.30;;;;;;5063666;28;20108;-36
2021/07/31 11:41:27;;;;;;;5.32;4.82;;;24.80;70.10;;;;;;5074126;28;20416;-36
2021/07/31 11:43:57;;;;;;;4.63;4.23;;;24.80;70.10;;;;;;5083259;28;20039;-36
2021/07/31 11:46:29;;;;;;;5.13;4.68;;;24.80;70.10;;;;;;5083620;28;20029;-36
2021/07/31 11:48:56;;;;;;;5.43;4.93;;;24.80;70.00;;;;;;5065334;28;20029;-36
2021/07/31 11:51:22;;;;;;;;;;;24.80;70.10;;;;;;5063683;28;20103;-36
2021/07/31 11:53:49;;;;;;;4.82;4.43;;;24.80;70.10;;;;;;5063120;28;19905;-36
2021/07/31 11:56:17;;;;;;;5.10;4.60;;;24.80;69.90;;;;;;5063234;28;20040;-36
2021/07/31 11:58:47;;;;;;;5.00;4.53;;;24.80;69.80;;;;;;5063218;28;20028;-36
2021/07/31 12:01:13;;;;;;;5.07;4.40;;;24.80;69.90;;;;;;5061624;28;20035;-36
2021/07/31 12:03:43;;;;;;;5.13;4.68;;;24.80;70.00;;;;;;5061849;28;20029;-36
2021/07/31 12:06:41;;;;;;;4.50;4.10;;;24.80;69.80;;;;;;5062951;28;20386;-36
2021/07/31 12:09:21;;;;;;;5.10;4.68;;;24.80;69.80;;;;;;5063043;28;20023;-36
2021/07/31 12:11:48;;;;;;;4.78;4.38;;;24.80;69.80;;;;;;5062457;28;20490;-36
2021/07/31 12:14:33;;;;;;;;;;;24.80;69.80;;;;;;5061747;28;20115;-36
2021/07/31 12:17:21;;;;;;;4.95;4.45;;;24.80;69.90;;;;;;5064768;28;19915;-36
2021/07/31 12:19:52;;;;;;;5.00;4.60;;;24.80;69.90;;;;;;5063736;28;20443;-40
2021/07/31 12:22:29;;;;;;;5.10;4.60;;;24.80;69.90;;;;;;5062767;28;20069;-36
2021/07/31 12:25:11;;;;;;;4.50;4.13;;;24.80;70.10;;;;;;5062810;28;20136;-37
2021/07/31 12:28:06;;;;;;;4.50;4.10;;;24.80;70.00;;;;;;5062777;28;20017;-37
2021/07/31 12:30:36;;;;;;;5.10;4.60;;;24.80;70.10;;;;;;5062722;28;20030;-36
2021/07/31 12:33:05;;;;;;;4.65;4.25;;;24.80;70.00;;;;;;5062704;28;20033;-36
2021/07/31 12:35:32;;;;;;;4.85;4.45;;;24.80;70.00;;;;;;5071125;28;20055;-36
2021/07/31 12:37:58;;;;;;;4.68;4.28;;;24.80;70.00;;;;;;5062705;28;20025;-36
2021/07/31 12:40:24;;;;;;;4.85;4.45;;;24.80;70.10;;;;;;5062773;28;20067;-36
2021/07/31 12:42:50;;;;;;;5.07;4.65;;;24.80;69.90;;;;;;5062422;28;20035;-36
2021/07/31 12:45:17;;;;;;;4.55;4.15;;;24.80;69.90;;;;;;5062491;28;20172;-36
2021/07/31 12:47:43;;;;;;;4.78;4.38;;;24.80;69.90;;;;;;5054630;28;20030;-36
2021/07/31 12:50:09;;;;;;;5.20;4.70;;;24.80;69.80;;;;;;5042732;28;20033;-36
2021/07/31 12:52:35;;;;;;;4.50;4.00;;;24.80;70.00;;;;;;5042485;28;20056;-36
2021/07/31 12:55:02;;;;;;;5.38;4.30;;;24.80;70.00;;;;;;5042599;28;20034;-36